Time;durP1;ratioP1;P1;durP2;ratioP2;P2;SDS_P1;SDS_P2;PMS_P1;PMS_P2;Temp;Humidity;BMP_temperature;BMP_pressure;BME280_temperature;BME280_humidity;BME280_pressure;Samples;Min_cycle;Max_cycle;Signal;HPM_P1;HPM_P2
2022/04/23 00:00:38;;;;;;;;;;;;;;;-143.90;100.00;55091.38;2087542;28;19924;-64
2022/04/23 00:01:59;;;;;;;;;;;;;;;-143.90;100.00;55172.78;2090872;28;19970;-64
2022/04/23 00:03:20;;;;;;;;;;;;;;;-143.90;100.00;55143.00;2087989;28;19927;-64
2022/04/23 00:04:41;;;;;;;;;;;;;;;-143.90;100.00;55119.16;2089286;28;20043;-65
2022/04/23 00:06:02;;;;;;;;;;;;;;;-143.90;100.00;55121.16;2086796;28;20002;-63
2022/04/23 00:07:22;;;;;;;;;;;;;;;-143.90;100.00;55119.16;2089152;28;19928;-64
2022/04/23 00:08:43;;;;;;;;;;;;;;;-143.90;100.00;55135.03;2086597;28;20047;-64
2022/04/23 00:10:04;;;;;;;;;;;;;;;-143.90;100.00;55150.94;2089674;28;19927;-65
2022/04/23 00:11:25;;;;;;;;;;;;;;;-143.90;100.00;55158.88;2089043;28;20776;-64
2022/04/23 00:12:46;;;;;;;;;;;;;;;-143.90;100.00;55154.91;2088930;28;19920;-64
2022/04/23 00:14:07;;;;;;;;;;;;;;;-143.90;100.00;55139.03;2090352;28;19924;-64
2022/04/23 00:15:29;;;;;;;;;;;;;;;-143.90;100.00;55123.13;2086909;28;19921;-64
2022/04/23 00:16:50;;;;;;;;;;;;;;;-143.90;100.00;55131.06;2087072;28;20389;-64
2022/04/23 00:18:11;;;;;;;;;;;;;;;-143.90;100.00;55174.75;2087642;28;20058;-64
2022/04/23 00:19:33;;;;;;;;;;;;;;;-143.90;100.00;55131.06;2089020;28;19956;-62
2022/04/23 00:20:55;;;;;;;;;;;;;;;-143.90;100.00;55131.06;2087013;28;19924;-64
2022/04/23 00:22:16;;;;;;;;;;;;;;;-143.90;100.00;55182.69;2087790;28;19921;-62
2022/04/23 00:23:37;;;;;;;;;;;;;;;-143.90;100.00;55148.94;2088701;28;19967;-63
2022/04/23 00:24:58;;;;;;;;;;;;;;;-143.90;100.00;55178.72;2087294;28;19931;-64
2022/04/23 00:26:18;;;;;;;;;;;;;;;-143.90;100.00;55158.88;2088479;28;19920;-64
2022/04/23 00:27:39;;;;;;;;;;;;;;;-143.90;100.00;55146.97;2088053;28;19999;-65
2022/04/23 00:29:00;;;;;;;;;;;;;;;-143.90;100.00;55170.78;2088290;28;19925;-65
2022/04/23 00:30:21;;;;;;;;;;;;;;;-143.90;100.00;55150.94;2086852;28;19932;-65
2022/04/23 00:31:42;;;;;;;;;;;;;;;-143.90;100.00;55121.16;2089788;28;20493;-65
2022/04/23 00:33:03;;;;;;;;;;;;;;;-143.90;100.00;55129.09;2085706;28;19921;-64
2022/04/23 00:34:25;;;;;;;;;;;;;;;-143.90;100.00;55109.22;2087791;28;20448;-65
2022/04/23 00:35:48;;;;;;;;;;;;;;;-143.90;100.00;55162.84;2088058;28;20379;-64
2022/04/23 00:37:10;;;;;;;;;;;;;;;-143.90;100.00;55139.03;2087692;28;19931;-65
2022/04/23 00:38:33;;;;;;;;;;;;;;;-143.90;100.00;55133.06;2087799;28;20817;-64
2022/04/23 00:39:53;;;;;;;;;;;;;;;-143.90;100.00;55146.97;2087209;28;19920;-64
2022/04/23 00:41:45;;;;;;;;;;;;;;;-143.90;100.00;55158.88;2087709;28;19924;-64
2022/04/23 00:42:57;;;;;;;;;;;;;;;-143.90;100.00;55162.84;2089509;28;20603;-65
2022/04/23 00:44:18;;;;;;;;;;;;;;;-143.90;100.00;55158.88;2087445;28;20538;-64
2022/04/23 00:45:40;;;;;;;;;;;;;;;-143.90;100.00;55095.34;2089465;28;19931;-64
2022/04/23 00:47:01;;;;;;;;;;;;;;;-143.90;100.00;55158.88;2088446;28;20026;-65
2022/04/23 00:48:24;;;;;;;;;;;;;;;-143.90;100.00;55137.03;2088755;28;19924;-65
2022/04/23 00:49:48;;;;;;;;;;;;;;;-143.90;100.00;55097.31;2087218;28;20072;-64
2022/04/23 00:51:12;;;;;;;;;;;;;;;-143.90;100.00;55146.97;2085505;28;19933;-64
2022/04/23 00:52:32;;;;;;;;;;;;;;;-143.90;100.00;55150.94;2088306;28;20012;-66
2022/04/23 00:53:53;;;;;;;;;;;;;;;-143.90;100.00;55123.13;2087050;28;19936;-64
2022/04/23 00:55:14;;;;;;;;;;;;;;;-143.90;100.00;55137.03;2087795;28;19921;-65
2022/04/23 00:56:35;;;;;;;;;;;;;;;-143.90;100.00;55107.25;2088490;28;19963;-65
2022/04/23 00:57:56;;;;;;;;;;;;;;;-143.90;100.00;55123.13;2087902;28;19927;-65
2022/04/23 00:59:17;;;;;;;;;;;;;;;-143.90;100.00;55127.09;2086358;28;19920;-64
2022/04/23 01:00:40;;;;;;;;;;;;;;;-143.90;100.00;55103.28;2086947;28;19928;-64
2022/04/23 01:02:03;;;;;;;;;;;;;;;-143.90;100.00;55139.03;2088027;28;20498;-64
2022/04/23 01:03:23;;;;;;;;;;;;;;;-143.90;100.00;55131.06;2086700;28;20986;-63
2022/04/23 01:04:44;;;;;;;;;;;;;;;-143.90;100.00;55119.16;2087309;28;20385;-65
2022/04/23 01:06:05;;;;;;;;;;;;;;;-143.90;100.00;55131.06;2087814;28;20291;-65
2022/04/23 01:07:26;;;;;;;;;;;;;;;-143.90;100.00;55150.94;2088502;28;19942;-65
2022/04/23 01:08:47;;;;;;;;;;;;;;;-143.90;100.00;55135.03;2087845;28;20693;-65
2022/04/23 01:10:08;;;;;;;;;;;;;;;-143.90;100.00;55127.09;2085118;28;19959;-64
2022/04/23 01:11:29;;;;;;;;;;;;;;;-143.90;100.00;55166.81;2086801;28;20550;-65
2022/04/23 01:12:50;;;;;;;;;;;;;;;-143.90;100.00;55135.03;2087512;28;19928;-65
2022/04/23 01:14:11;;;;;;;;;;;;;;;-143.90;100.00;55152.91;2086986;28;19931;-64
2022/04/23 01:15:33;;;;;;;;;;;;;;;-143.90;100.00;55139.03;2087936;28;20439;-64
2022/04/23 01:16:54;;;;;;;;;;;;;;;-143.90;100.00;55139.03;2084447;28;19928;-64
2022/04/23 01:18:16;;;;;;;;;;;;;;;-143.90;100.00;55111.22;2087067;28;19928;-64
2022/04/23 01:19:37;;;;;;;;;;;;;;;-143.90;100.00;55119.16;2088929;28;19975;-65
2022/04/23 01:20:59;;;;;;;;;;;;;;;-143.90;100.00;55143.00;2089634;28;20035;-63
2022/04/23 01:22:20;;;;;;;;;;;;;;;-143.90;100.00;55160.84;2088625;28;20684;-65
2022/04/23 01:23:45;;;;;;;;;;;;;;;-143.90;100.00;55117.19;2087784;28;20347;-64
2022/04/23 01:25:07;;;;;;;;;;;;;;;-143.90;100.00;55127.09;2078874;28;20047;-65
2022/04/23 01:26:28;;;;;;;;;;;;;;;-143.90;100.00;55148.94;2084057;28;19924;-64
2022/04/23 01:27:49;;;;;;;;;;;;;;;-143.90;100.00;55144.97;2087320;28;20140;-65
2022/04/23 01:29:09;;;;;;;;;;;;;;;-143.90;100.00;55135.03;2085558;28;19928;-65
2022/04/23 01:30:30;;;;;;;;;;;;;;;-143.90;100.00;55150.94;2086809;28;19978;-66
2022/04/23 01:31:51;;;;;;;;;;;;;;;-143.90;100.00;55146.97;2086952;28;19999;-64
2022/04/23 01:33:12;;;;;;;;;;;;;;;-143.90;100.00;55150.94;2086201;28;19920;-65
2022/04/23 01:34:32;;;;;;;;;;;;;;;-143.90;100.00;55158.88;2087945;28;19920;-65
2022/04/23 01:35:53;;;;;;;;;;;;;;;-143.90;100.00;55131.06;2080290;28;20487;-65
2022/04/23 01:37:13;;;;;;;;;;;;;;;-143.90;100.00;55135.03;2086020;28;19943;-65
2022/04/23 01:38:34;;;;;;;;;;;;;;;-143.90;100.00;55174.75;2087049;28;20667;-65
2022/04/23 01:39:55;;;;;;;;;;;;;;;-143.90;100.00;55174.75;2088259;28;19928;-65
2022/04/23 01:41:15;;;;;;;;;;;;;;;-143.90;100.00;55125.13;2087710;28;20024;-64
2022/04/23 01:42:36;;;;;;;;;;;;;;;-143.90;100.00;55143.00;2086626;28;20003;-65
2022/04/23 01:43:57;;;;;;;;;;;;;;;-143.90;100.00;55107.25;2081240;28;19960;-64
2022/04/23 01:45:18;;;;;;;;;;;;;;;-143.90;100.00;55135.03;2086031;28;19920;-65
2022/04/23 01:46:38;;;;;;;;;;;;;;;-143.90;100.00;55111.22;2086056;28;20379;-64
2022/04/23 01:47:59;;;;;;;;;;;;;;;-143.90;100.00;55097.31;2088368;28;19920;-63
2022/04/23 01:49:20;;;;;;;;;;;;;;;-143.90;100.00;55162.84;2088821;28;20083;-65
2022/04/23 01:50:40;;;;;;;;;;;;;;;-143.90;100.00;55139.03;2088219;28;19925;-65
2022/04/23 01:52:01;;;;;;;;;;;;;;;-143.90;100.00;55109.22;2090948;28;20384;-65
2022/04/23 01:53:22;;;;;;;;;;;;;;;-143.90;100.00;55154.91;2089783;28;19927;-65
2022/04/23 01:54:43;;;;;;;;;;;;;;;-143.90;100.00;55139.03;2089916;28;20710;-65
2022/04/23 01:56:04;;;;;;;;;;;;;;;-143.90;100.00;55131.06;2089757;28;19921;-65
2022/04/23 01:57:25;;;;;;;;;;;;;;;-143.90;100.00;55131.06;2089530;28;19920;-65
2022/04/23 01:58:46;;;;;;;;;;;;;;;-143.90;100.00;55131.06;2088638;28;20002;-65
2022/04/23 02:00:08;;;;;;;;;;;;;;;-143.90;100.00;55127.09;2088707;28;20376;-65
2022/04/23 02:01:32;;;;;;;;;;;;;;;-143.90;100.00;55101.28;2089795;28;19924;-64
2022/04/23 02:02:54;;;;;;;;;;;;;;;-143.90;100.00;55131.06;2089121;28;20396;-65
2022/04/23 02:04:15;;;;;;;;;;;;;;;-143.90;100.00;55150.94;2089126;28;20318;-64
2022/04/23 02:05:37;;;;;;;;;;;;;;;-143.90;100.00;55115.19;2089574;28;20463;-65
2022/04/23 02:06:58;;;;;;;;;;;;;;;-143.90;100.00;55127.09;2086193;28;20047;-63
2022/04/23 02:08:18;;;;;;;;;;;;;;;-143.90;100.00;55150.94;2089810;28;19931;-65
2022/04/23 02:09:39;;;;;;;;;;;;;;;-143.90;100.00;55158.88;2090872;28;19920;-65
2022/04/23 02:11:00;;;;;;;;;;;;;;;-143.90;100.00;55141.00;2089180;28;19921;-64
2022/04/23 02:12:21;;;;;;;;;;;;;;;-143.90;100.00;55137.03;2090075;28;19925;-64
2022/04/23 02:13:41;;;;;;;;;;;;;;;-143.90;100.00;55143.00;2089334;28;20003;-65
2022/04/23 02:15:02;;;;;;;;;;;;;;;-143.90;100.00;55135.03;2089188;28;19994;-65
2022/04/23 02:16:23;;;;;;;;;;;;;;;-143.90;100.00;55111.22;2089187;28;19963;-64
2022/04/23 02:17:44;;;;;;;;;;;;;;;-143.90;100.00;55119.16;2087691;28;19924;-62
2022/04/23 02:19:05;;;;;;;;;;;;;;;-143.90;100.00;55121.16;2088452;28;19967;-65
2022/04/23 02:20:28;;;;;;;;;;;;;;;-143.90;100.00;55146.97;2089033;28;19932;-65
2022/04/23 02:21:49;;;;;;;;;;;;;;;-143.90;100.00;55135.03;2089601;28;19924;-64
2022/04/23 02:23:10;;;;;;;;;;;;;;;-143.90;100.00;55146.97;2090748;28;19924;-65
2022/04/23 02:24:30;;;;;;;;;;;;;;;-143.90;100.00;55146.97;2088872;28;20483;-65
2022/04/23 02:25:51;;;;;;;;;;;;;;;-143.90;100.00;55143.00;2088166;28;19929;-65
2022/04/23 02:27:12;;;;;;;;;;;;;;;-143.90;100.00;55111.22;2087606;28;20647;-65
2022/04/23 02:28:32;;;;;;;;;;;;;;;-143.90;100.00;55146.97;2089069;28;19936;-64
2022/04/23 02:29:53;;;;;;;;;;;;;;;-143.90;100.00;55115.19;2089780;28;19927;-65
2022/04/23 02:31:14;;;;;;;;;;;;;;;-143.90;100.00;55127.09;2089436;28;19925;-65
2022/04/23 02:32:35;;;;;;;;;;;;;;;-143.90;100.00;55158.88;2089568;28;19920;-64
2022/04/23 02:33:57;;;;;;;;;;;;;;;-143.90;100.00;55129.09;2088323;28;19969;-65
2022/04/23 02:35:19;;;;;;;;;;;;;;;-143.90;100.00;55135.03;2089616;28;19942;-64
2022/04/23 02:36:39;;;;;;;;;;;;;;;-143.90;100.00;55178.72;2087680;28;20384;-65
2022/04/23 02:38:01;;;;;;;;;;;;;;;-143.90;100.00;55166.81;2090304;28;20241;-64
2022/04/23 02:39:22;;;;;;;;;;;;;;;-143.90;100.00;55154.91;2089224;28;19924;-64
2022/04/23 02:40:43;;;;;;;;;;;;;;;-143.90;100.00;55162.84;2089254;28;19928;-65
2022/04/23 02:42:04;;;;;;;;;;;;;;;-143.90;100.00;55127.09;2088627;28;19924;-63
2022/04/23 02:43:25;;;;;;;;;;;;;;;-143.90;100.00;55148.94;2090735;28;20643;-64
2022/04/23 02:44:47;;;;;;;;;;;;;;;-143.90;100.00;55103.28;2090474;28;19921;-66
2022/04/23 02:46:08;;;;;;;;;;;;;;;-143.90;100.00;55154.91;2091543;28;19931;-64
2022/04/23 02:47:30;;;;;;;;;;;;;;;-143.90;100.00;55143.00;2091262;28;19924;-65
2022/04/23 02:48:50;;;;;;;;;;;;;;;-143.90;100.00;55139.03;2090041;28;19932;-65
2022/04/23 02:50:12;;;;;;;;;;;;;;;-143.90;100.00;55121.16;2089427;28;19991;-64
2022/04/23 02:51:33;;;;;;;;;;;;;;;-143.90;100.00;55143.00;2088313;28;20004;-65
2022/04/23 02:52:57;;;;;;;;;;;;;;;-143.90;100.00;55139.03;2089965;28;19921;-65
2022/04/23 02:54:18;;;;;;;;;;;;;;;-143.90;100.00;55117.19;2091571;28;20668;-66
2022/04/23 02:55:39;;;;;;;;;;;;;;;-143.90;100.00;55119.16;2087964;28;19920;-63
2022/04/23 02:57:00;;;;;;;;;;;;;;;-143.90;100.00;55129.09;2088567;28;20513;-65
2022/04/23 02:58:21;;;;;;;;;;;;;;;-143.90;100.00;55107.25;2088171;28;19924;-65
2022/04/23 02:59:42;;;;;;;;;;;;;;;-143.90;100.00;55170.78;2089139;28;20018;-65
2022/04/23 03:01:03;;;;;;;;;;;;;;;-143.90;100.00;55178.72;2089025;28;20035;-65
2022/04/23 03:02:23;;;;;;;;;;;;;;;-143.90;100.00;55166.81;2089887;28;19921;-64
2022/04/23 03:03:44;;;;;;;;;;;;;;;-143.90;100.00;55158.88;2090388;28;19927;-65
2022/04/23 03:05:09;;;;;;;;;;;;;;;-143.90;100.00;55123.13;2088372;28;20019;-63
2022/04/23 03:06:30;;;;;;;;;;;;;;;-143.90;100.00;55146.97;2090656;28;20288;-65
2022/04/23 03:07:52;;;;;;;;;;;;;;;-143.90;100.00;55139.03;2088559;28;19931;-65
2022/04/23 03:09:13;;;;;;;;;;;;;;;-143.90;100.00;55150.94;2088309;28;19948;-65
2022/04/23 03:10:33;;;;;;;;;;;;;;;-143.90;100.00;55087.41;2088760;28;19931;-65
2022/04/23 03:11:54;;;;;;;;;;;;;;;-143.90;100.00;55135.03;2089885;28;19920;-65
2022/04/23 03:13:15;;;;;;;;;;;;;;;-143.90;100.00;55135.03;2082185;28;19921;-65
2022/04/23 03:14:36;;;;;;;;;;;;;;;-143.90;100.00;55131.06;2088255;28;20407;-65
2022/04/23 03:15:57;;;;;;;;;;;;;;;-143.90;100.00;55125.13;2089759;28;19925;-65
2022/04/23 03:17:17;;;;;;;;;;;;;;;-143.90;100.00;55143.00;2088287;28;19921;-65
2022/04/23 03:18:38;;;;;;;;;;;;;;;-143.90;100.00;55150.94;2090677;28;19921;-65
2022/04/23 03:19:59;;;;;;;;;;;;;;;-143.90;100.00;55119.16;2089409;28;20015;-65
2022/04/23 03:21:20;;;;;;;;;;;;;;;-143.90;100.00;55178.72;2089524;28;19998;-65
2022/04/23 03:22:41;;;;;;;;;;;;;;;-143.90;100.00;55160.84;2089928;28;20487;-65
2022/04/23 03:24:01;;;;;;;;;;;;;;;-143.90;100.00;55186.69;2088450;28;19952;-65
2022/04/23 03:25:22;;;;;;;;;;;;;;;-143.90;100.00;55150.94;2087874;28;19921;-65
2022/04/23 03:26:45;;;;;;;;;;;;;;;-143.90;100.00;55172.78;2088369;28;19927;-65
2022/04/23 03:28:06;;;;;;;;;;;;;;;-143.90;100.00;55135.03;2087672;28;19924;-65
2022/04/23 03:29:27;;;;;;;;;;;;;;;-143.90;100.00;55154.91;2089304;28;19924;-65
2022/04/23 03:30:47;;;;;;;;;;;;;;;-143.90;100.00;55146.97;2088366;28;19928;-65
2022/04/23 03:32:08;;;;;;;;;;;;;;;-143.90;100.00;55121.16;2085663;28;19932;-65
2022/04/23 03:33:28;;;;;;;;;;;;;;;-143.90;100.00;55144.97;2089297;28;19971;-65
2022/04/23 03:34:49;;;;;;;;;;;;;;;-143.90;100.00;55131.06;2088306;28;19921;-64
2022/04/23 03:36:10;;;;;;;;;;;;;;;-143.90;100.00;55135.03;2090651;28;20003;-64
2022/04/23 03:37:31;;;;;;;;;;;;;;;-143.90;100.00;55139.03;2089541;28;19924;-65
2022/04/23 03:38:52;;;;;;;;;;;;;;;-143.90;100.00;55135.03;2091080;28;19921;-65
2022/04/23 03:40:13;;;;;;;;;;;;;;;-143.90;100.00;55162.84;2088409;28;19933;-65
2022/04/23 03:41:34;;;;;;;;;;;;;;;-143.90;100.00;55158.88;2088961;28;19928;-63
2022/04/23 03:42:54;;;;;;;;;;;;;;;-143.90;100.00;55160.84;2089003;28;20379;-65
2022/04/23 03:44:15;;;;;;;;;;;;;;;-143.90;100.00;55170.78;2089715;28;19927;-65
2022/04/23 03:45:37;;;;;;;;;;;;;;;-143.90;100.00;55154.91;2090400;28;19963;-65
2022/04/23 03:46:59;;;;;;;;;;;;;;;-143.90;100.00;55127.09;2089817;28;20788;-66
2022/04/23 03:48:19;;;;;;;;;;;;;;;-143.90;100.00;55146.97;2088978;28;19960;-65
2022/04/23 03:49:40;;;;;;;;;;;;;;;-143.90;100.00;55176.75;2089395;28;19920;-65
2022/04/23 03:51:01;;;;;;;;;;;;;;;-143.90;100.00;55135.03;2088940;28;20315;-65
2022/04/23 03:52:22;;;;;;;;;;;;;;;-143.90;100.00;55160.84;2088746;28;19921;-65
2022/04/23 03:53:42;;;;;;;;;;;;;;;-143.90;100.00;55174.75;2089220;28;19931;-65
2022/04/23 03:55:04;;;;;;;;;;;;;;;-143.90;100.00;55143.00;2089092;28;19952;-65
2022/04/23 03:56:25;;;;;;;;;;;;;;;-143.90;100.00;55162.84;2087337;28;19931;-64
2022/04/23 03:57:49;;;;;;;;;;;;;;;-143.90;100.00;55150.94;2088409;28;19920;-65
2022/04/23 03:59:10;;;;;;;;;;;;;;;-143.90;100.00;55131.06;2086457;28;19960;-65
2022/04/23 04:00:31;;;;;;;;;;;;;;;-143.90;100.00;55129.09;2087654;28;19924;-65
2022/04/23 04:01:53;;;;;;;;;;;;;;;-143.90;100.00;55194.63;2089342;28;19998;-66
2022/04/23 04:03:14;;;;;;;;;;;;;;;-143.90;100.00;55146.97;2082695;28;19960;-65
2022/04/23 04:04:35;;;;;;;;;;;;;;;-143.90;100.00;55170.78;2086362;28;19927;-65
2022/04/23 04:05:55;;;;;;;;;;;;;;;-143.90;100.00;55242.28;2086369;28;19987;-65
2022/04/23 04:07:18;;;;;;;;;;;;;;;-143.90;100.00;55127.09;2088433;28;19956;-64
2022/04/23 04:08:38;;;;;;;;;;;;;;;-143.90;100.00;55146.97;2088654;28;19959;-65
2022/04/23 04:10:00;;;;;;;;;;;;;;;-143.90;100.00;55123.13;2087989;28;19922;-64
2022/04/23 04:11:21;;;;;;;;;;;;;;;-143.90;100.00;55166.81;2089192;28;19928;-65
2022/04/23 04:12:41;;;;;;;;;;;;;;;-143.90;100.00;55119.16;2087571;28;19920;-64
2022/04/23 04:14:02;;;;;;;;;;;;;;;-143.90;100.00;55158.88;2088222;28;19942;-65
2022/04/23 04:15:23;;;;;;;;;;;;;;;-143.90;100.00;55154.91;2087402;28;20562;-64
2022/04/23 04:16:45;;;;;;;;;;;;;;;-143.90;100.00;55166.81;2086788;28;19921;-65
2022/04/23 04:18:06;;;;;;;;;;;;;;;-143.90;100.00;55141.00;2089499;28;19921;-65
2022/04/23 04:19:27;;;;;;;;;;;;;;;-143.90;100.00;55135.03;2087735;28;19921;-63
2022/04/23 04:20:53;;;;;;;;;;;;;;;-143.90;100.00;55158.88;2089765;28;19925;-65
2022/04/23 04:22:14;;;;;;;;;;;;;;;-143.90;100.00;55123.13;2087874;28;19942;-65
2022/04/23 04:23:35;;;;;;;;;;;;;;;-143.90;100.00;55146.97;2089393;27;19928;-65
2022/04/23 04:24:56;;;;;;;;;;;;;;;-143.90;100.00;55158.88;2086935;28;19961;-64
2022/04/23 04:26:17;;;;;;;;;;;;;;;-143.90;100.00;55158.88;2087152;28;19939;-64
2022/04/23 04:27:38;;;;;;;;;;;;;;;-143.90;100.00;55162.84;2090102;28;20042;-65
2022/04/23 04:28:58;;;;;;;;;;;;;;;-143.90;100.00;55121.16;2088510;28;19979;-65
2022/04/23 04:30:19;;;;;;;;;;;;;;;-143.90;100.00;55162.84;2087110;28;19968;-64
2022/04/23 04:31:51;;;;;;;;;;;;;;;-143.90;100.00;55154.91;2089285;28;19943;-64
2022/04/23 04:33:12;;;;;;;;;;;;;;;-143.90;100.00;55166.81;2085316;28;19925;-64
2022/04/23 04:34:33;;;;;;;;;;;;;;;-143.90;100.00;55135.03;2087860;28;20035;-65
2022/04/23 04:35:53;;;;;;;;;;;;;;;-143.90;100.00;55154.91;2088798;28;19921;-65
2022/04/23 04:37:14;;;;;;;;;;;;;;;-143.90;100.00;55119.16;2087994;28;19921;-65
2022/04/23 04:38:35;;;;;;;;;;;;;;;-143.90;100.00;55146.97;2087408;28;19927;-65
2022/04/23 04:39:56;;;;;;;;;;;;;;;-143.90;100.00;55150.94;2087112;28;19927;-64
2022/04/23 04:41:16;;;;;;;;;;;;;;;-143.90;100.00;55162.84;2088231;28;19925;-64
2022/04/23 04:42:37;;;;;;;;;;;;;;;-143.90;100.00;55146.97;2087635;28;19931;-65
2022/04/23 04:43:58;;;;;;;;;;;;;;;-143.90;100.00;55127.09;2089573;28;19923;-64
2022/04/23 04:45:18;;;;;;;;;;;;;;;-143.90;100.00;55115.19;2089119;28;20888;-65
2022/04/23 04:46:39;;;;;;;;;;;;;;;-143.90;100.00;55135.03;2088138;28;19952;-65
2022/04/23 04:48:00;;;;;;;;;;;;;;;-143.90;100.00;55146.97;2087190;28;19952;-65
2022/04/23 04:49:24;;;;;;;;;;;;;;;-143.90;100.00;55131.06;2085111;28;20014;-64
2022/04/23 04:50:44;;;;;;;;;;;;;;;-143.90;100.00;55146.97;2087817;28;19959;-65
2022/04/23 04:52:05;;;;;;;;;;;;;;;-143.90;100.00;55144.97;2089627;28;19928;-65
2022/04/23 04:53:26;;;;;;;;;;;;;;;-143.90;100.00;55127.09;2088185;28;19925;-65
2022/04/23 04:54:46;;;;;;;;;;;;;;;-143.90;100.00;55139.03;2086646;28;20035;-65
2022/04/23 04:56:07;;;;;;;;;;;;;;;-143.90;100.00;55154.91;2086919;28;19935;-65
2022/04/23 04:57:28;;;;;;;;;;;;;;;-143.90;100.00;55174.75;2089940;28;19925;-63
2022/04/23 04:58:49;;;;;;;;;;;;;;;-143.90;100.00;55156.88;2088249;28;20482;-65
2022/04/23 05:00:10;;;;;;;;;;;;;;;-143.90;100.00;55127.09;2089610;28;19920;-65
2022/04/23 05:01:31;;;;;;;;;;;;;;;-143.90;100.00;55139.03;2086988;28;19948;-67
2022/04/23 05:02:51;;;;;;;;;;;;;;;-143.90;100.00;55154.91;2086889;28;19994;-65
2022/04/23 05:04:12;;;;;;;;;;;;;;;-143.90;100.00;55123.13;2088151;28;19942;-64
2022/04/23 05:05:33;;;;;;;;;;;;;;;-143.90;100.00;55115.19;2087294;28;19927;-64
2022/04/23 05:06:54;;;;;;;;;;;;;;;-143.90;100.00;55127.09;2087884;28;19920;-65
2022/04/23 05:08:14;;;;;;;;;;;;;;;-143.90;100.00;55125.13;2089026;28;19920;-63
2022/04/23 05:09:35;;;;;;;;;;;;;;;-143.90;100.00;55152.91;2090092;28;19927;-65
2022/04/23 05:10:56;;;;;;;;;;;;;;;-143.90;100.00;55127.09;2088303;28;20605;-65
2022/04/23 05:12:16;;;;;;;;;;;;;;;-143.90;100.00;55146.97;2087545;28;19932;-65
2022/04/23 05:13:38;;;;;;;;;;;;;;;-143.90;100.00;55162.84;2088423;28;20032;-64
2022/04/23 05:14:58;;;;;;;;;;;;;;;-143.90;100.00;55146.97;2089237;28;19920;-65
2022/04/23 05:16:19;;;;;;;;;;;;;;;-143.90;100.00;55099.31;2089156;28;19921;-64
2022/04/23 05:17:40;;;;;;;;;;;;;;;-143.90;100.00;55143.00;2090724;28;19925;-64
2022/04/23 05:19:00;;;;;;;;;;;;;;;-143.90;100.00;55168.81;2086992;28;19979;-64
2022/04/23 05:20:21;;;;;;;;;;;;;;;-143.90;100.00;55143.00;2087933;28;19928;-64
2022/04/23 05:21:42;;;;;;;;;;;;;;;-143.90;100.00;55143.00;2087593;28;19927;-65
2022/04/23 05:23:03;;;;;;;;;;;;;;;-143.90;100.00;55148.94;2088295;28;19974;-64
2022/04/23 05:24:24;;;;;;;;;;;;;;;-143.90;100.00;55154.91;2094472;28;20458;-65
2022/04/23 05:25:44;;;;;;;;;;;;;;;-143.90;100.00;55107.25;2091813;28;19984;-65
2022/04/23 05:27:05;;;;;;;;;;;;;;;-143.90;100.00;55146.97;2090448;28;19921;-64
2022/04/23 05:28:26;;;;;;;;;;;;;;;-143.90;100.00;55119.16;2096994;28;19924;-63
2022/04/23 05:29:46;;;;;;;;;;;;;;;-143.90;100.00;55129.09;2095379;28;19927;-65
2022/04/23 05:31:07;;;;;;;;;;;;;;;-143.90;100.00;55144.97;2097045;28;19920;-64
2022/04/23 05:32:28;;;;;;;;;;;;;;;-143.90;100.00;55166.81;2094978;28;19920;-64
2022/04/23 05:33:50;;;;;;;;;;;;;;;-143.90;100.00;55135.03;2094670;28;19924;-65
2022/04/23 05:35:11;;;;;;;;;;;;;;;-143.90;100.00;55139.03;2095886;28;20058;-65
2022/04/23 05:36:32;;;;;;;;;;;;;;;-143.90;100.00;55135.03;2096196;28;20067;-64
2022/04/23 05:37:53;;;;;;;;;;;;;;;-143.90;100.00;55143.00;2098396;28;20386;-65
2022/04/23 05:39:13;;;;;;;;;;;;;;;-143.90;100.00;55143.00;2097549;28;19927;-65
2022/04/23 05:40:34;;;;;;;;;;;;;;;-143.90;100.00;55127.09;2095139;28;20376;-64
2022/04/23 05:41:55;;;;;;;;;;;;;;;-143.90;100.00;55156.88;2097549;28;20772;-63
2022/04/23 05:43:16;;;;;;;;;;;;;;;-143.90;100.00;55123.13;2097387;28;21340;-63
2022/04/23 05:44:37;;;;;;;;;;;;;;;-143.90;100.00;55143.00;2094913;28;19920;-63
2022/04/23 05:46:00;;;;;;;;;;;;;;;-143.90;100.00;55125.13;2096566;28;19945;-63
2022/04/23 05:47:20;;;;;;;;;;;;;;;-143.90;100.00;55111.22;2095023;28;19963;-63
2022/04/23 05:48:42;;;;;;;;;;;;;;;-143.90;100.00;55127.09;2098366;28;20766;-63
2022/04/23 05:50:03;;;;;;;;;;;;;;;-143.90;100.00;55143.00;2093002;28;19924;-64
2022/04/23 05:51:23;;;;;;;;;;;;;;;-143.90;100.00;55087.41;2094416;28;20552;-62
2022/04/23 05:52:44;;;;;;;;;;;;;;;-143.90;100.00;55091.38;2093836;28;20601;-64
2022/04/23 05:54:05;;;;;;;;;;;;;;;-143.90;100.00;55115.19;2096638;28;19920;-64
2022/04/23 05:55:26;;;;;;;;;;;;;;;-143.90;100.00;55081.44;2096662;28;19920;-64
2022/04/23 05:56:46;;;;;;;;;;;;;;;-143.90;100.00;55115.19;2095139;28;19920;-64
2022/04/23 05:58:07;;;;;;;;;;;;;;;-143.90;100.00;55087.41;2095799;28;19930;-64
2022/04/23 05:59:29;;;;;;;;;;;;;;;-143.90;100.00;55127.09;2095330;28;19935;-64
2022/04/23 06:00:50;;;;;;;;;;;;;;;-143.90;100.00;55123.13;2095361;28;19928;-64
2022/04/23 06:02:13;;;;;;;;;;;;;;;-143.90;100.00;55111.22;2094770;28;19928;-64
2022/04/23 06:03:34;;;;;;;;;;;;;;;-143.90;100.00;55143.00;2095447;28;19998;-63
2022/04/23 06:04:54;;;;;;;;;;;;;;;-143.90;100.00;55137.03;2095989;28;20437;-62
2022/04/23 06:06:15;;;;;;;;;;;;;;;-143.90;100.00;55135.03;2098003;28;19966;-64
2022/04/23 06:07:36;;;;;;;;;;;;;;;-143.90;100.00;55113.22;2098186;28;20345;-64
2022/04/23 06:08:57;;;;;;;;;;;;;;;-143.90;100.00;55146.97;2096043;28;20022;-64
2022/04/23 06:10:18;;;;;;;;;;;;;;;-143.90;100.00;55162.84;2095709;28;20613;-64
2022/04/23 06:11:39;;;;;;;;;;;;;;;-143.90;100.00;55127.09;2095610;28;19920;-64
2022/04/23 06:12:59;;;;;;;;;;;;;;;-143.90;100.00;55131.06;2096367;28;20044;-64
2022/04/23 06:14:20;;;;;;;;;;;;;;;-143.90;100.00;55144.97;2097118;28;20391;-63
2022/04/23 06:15:42;;;;;;;;;;;;;;;-143.90;100.00;55148.94;2099954;28;19924;-64
2022/04/23 06:17:10;;;;;;;;;;;;;;;-143.90;100.00;55133.06;2097161;28;19955;-64
2022/04/23 06:18:31;;;;;;;;;;;;;;;-143.90;100.00;55143.00;2099615;28;19931;-64
2022/04/23 06:19:52;;;;;;;;;;;;;;;-143.90;100.00;55131.06;2098621;28;20005;-63
2022/04/23 06:21:13;;;;;;;;;;;;;;;-143.90;100.00;55135.03;2096895;28;19924;-63
2022/04/23 06:22:33;;;;;;;;;;;;;;;-143.90;100.00;55144.97;2097840;28;19997;-63
2022/04/23 06:23:54;;;;;;;;;;;;;;;-143.90;100.00;55158.88;2096564;28;20343;-63
2022/04/23 06:25:15;;;;;;;;;;;;;;;-143.90;100.00;55123.13;2098756;28;20779;-63
2022/04/23 06:26:36;;;;;;;;;;;;;;;-143.90;100.00;55152.91;2099051;28;19997;-62
2022/04/23 06:27:56;;;;;;;;;;;;;;;-143.90;100.00;55135.03;2097840;28;19970;-63
2022/04/23 06:29:17;;;;;;;;;;;;;;;-143.90;100.00;55162.84;2098872;28;20367;-64
2022/04/23 06:30:38;;;;;;;;;;;;;;;-143.90;100.00;55085.41;2100026;28;19951;-63
2022/04/23 06:31:58;;;;;;;;;;;;;;;-143.90;100.00;55127.09;2095601;28;20416;-63
2022/04/23 06:33:19;;;;;;;;;;;;;;;-143.90;100.00;55119.16;2099083;28;19994;-63
2022/04/23 06:34:40;;;;;;;;;;;;;;;-143.90;100.00;55117.19;2098535;28;19971;-64
2022/04/23 06:36:01;;;;;;;;;;;;;;;-143.90;100.00;55123.13;2099071;28;19924;-64
2022/04/23 06:37:21;;;;;;;;;;;;;;;-143.90;100.00;55079.44;2098589;28;19927;-63
2022/04/23 06:38:42;;;;;;;;;;;;;;;-143.90;100.00;55067.53;2098771;28;20026;-64
2022/04/23 06:40:03;;;;;;;;;;;;;;;-143.90;100.00;55107.25;2100093;28;19966;-65
2022/04/23 06:41:24;;;;;;;;;;;;;;;-143.90;100.00;55063.56;2099070;28;20043;-64
2022/04/23 06:42:45;;;;;;;;;;;;;;;-143.90;100.00;55055.63;2098763;28;19934;-64
2022/04/23 06:44:06;;;;;;;;;;;;;;;-143.90;100.00;55093.34;2089952;28;19916;-67
2022/04/23 06:45:26;;;;;;;;;;;;;;;-143.90;100.00;55087.41;2094904;28;20279;-64
2022/04/23 06:46:47;;;;;;;;;;;;;;;-143.90;100.00;55093.34;2098195;28;19924;-65